sensor_id;sensor_type;location;lat;lon;timestamp;temperature;humidity
296;DHT22;132;48.770;9.200;2022-10-16T00:00:42;16.00;1.00
296;DHT22;132;48.770;9.200;2022-10-16T00:03:09;16.00;1.00
296;DHT22;132;48.770;9.200;2022-10-16T00:05:41;16.00;1.00
296;DHT22;132;48.770;9.200;2022-10-16T00:08:09;16.00;1.00
296;DHT22;132;48.770;9.200;2022-10-16T00:10:36;16.00;1.00
296;DHT22;132;48.770;9.200;2022-10-16T00:13:03;16.00;1.00
296;DHT22;132;48.770;9.200;2022-10-16T00:15:33;15.90;1.00
296;DHT22;132;48.770;9.200;2022-10-16T00:18:03;15.90;1.00
296;DHT22;132;48.770;9.200;2022-10-16T00:20:30;15.80;1.00
296;DHT22;132;48.770;9.200;2022-10-16T00:23:18;15.80;1.00
296;DHT22;132;48.770;9.200;2022-10-16T00:25:45;15.70;1.00
296;DHT22;132;48.770;9.200;2022-10-16T00:28:20;15.80;1.00
296;DHT22;132;48.770;9.200;2022-10-16T00:30:47;15.80;1.00
296;DHT22;132;48.770;9.200;2022-10-16T00:33:13;15.70;1.00
296;DHT22;132;48.770;9.200;2022-10-16T00:35:39;15.50;1.00
296;DHT22;132;48.770;9.200;2022-10-16T00:38:06;15.60;1.00
296;DHT22;132;48.770;9.200;2022-10-16T00:40:32;15.50;1.00
296;DHT22;132;48.770;9.200;2022-10-16T00:42:58;15.50;1.00
296;DHT22;132;48.770;9.200;2022-10-16T00:45:25;15.50;1.00
296;DHT22;132;48.770;9.200;2022-10-16T00:47:53;15.50;1.00
296;DHT22;132;48.770;9.200;2022-10-16T00:50:28;15.60;1.00
296;DHT22;132;48.770;9.200;2022-10-16T00:52:56;15.60;1.00
296;DHT22;132;48.770;9.200;2022-10-16T00:55:24;15.50;1.00
296;DHT22;132;48.770;9.200;2022-10-16T00:57:51;15.60;1.00
296;DHT22;132;48.770;9.200;2022-10-16T01:00:22;15.40;1.00
296;DHT22;132;48.770;9.200;2022-10-16T01:02:53;15.50;1.00
296;DHT22;132;48.770;9.200;2022-10-16T01:05:22;15.50;1.00
296;DHT22;132;48.770;9.200;2022-10-16T01:07:56;15.50;1.00
296;DHT22;132;48.770;9.200;2022-10-16T01:10:43;15.40;1.00
296;DHT22;132;48.770;9.200;2022-10-16T01:13:21;15.40;1.00
296;DHT22;132;48.770;9.200;2022-10-16T01:15:56;15.40;1.00
296;DHT22;132;48.770;9.200;2022-10-16T01:18:37;15.40;1.00
296;DHT22;132;48.770;9.200;2022-10-16T01:21:26;15.40;1.00
296;DHT22;132;48.770;9.200;2022-10-16T01:24:17;15.40;1.00
296;DHT22;132;48.770;9.200;2022-10-16T01:30:27;15.40;1.00
296;DHT22;132;48.770;9.200;2022-10-16T01:32:50;15.40;1.00
296;DHT22;132;48.770;9.200;2022-10-16T01:35:27;15.30;1.00
296;DHT22;132;48.770;9.200;2022-10-16T01:38:06;15.30;1.00
296;DHT22;132;48.770;9.200;2022-10-16T01:40:36;15.30;1.00
296;DHT22;132;48.770;9.200;2022-10-16T01:43:17;15.40;1.00
296;DHT22;132;48.770;9.200;2022-10-16T01:45:45;15.30;1.00
296;DHT22;132;48.770;9.200;2022-10-16T01:48:17;15.30;1.00
296;DHT22;132;48.770;9.200;2022-10-16T01:50:59;15.30;1.00
296;DHT22;132;48.770;9.200;2022-10-16T01:53:27;15.40;1.00
296;DHT22;132;48.770;9.200;2022-10-16T01:55:55;15.40;1.00
296;DHT22;132;48.770;9.200;2022-10-16T01:58:24;15.30;1.00
296;DHT22;132;48.770;9.200;2022-10-16T02:00:52;15.40;1.00
296;DHT22;132;48.770;9.200;2022-10-16T02:03:19;15.50;1.00
296;DHT22;132;48.770;9.200;2022-10-16T02:05:57;15.50;1.00
296;DHT22;132;48.770;9.200;2022-10-16T02:08:26;15.50;1.00
296;DHT22;132;48.770;9.200;2022-10-16T02:10:55;15.50;1.00
296;DHT22;132;48.770;9.200;2022-10-16T02:15:55;15.50;1.00
296;DHT22;132;48.770;9.200;2022-10-16T02:18:22;15.50;1.00
296;DHT22;132;48.770;9.200;2022-10-16T02:20:55;15.60;1.00
296;DHT22;132;48.770;9.200;2022-10-16T02:23:29;15.50;1.00
296;DHT22;132;48.770;9.200;2022-10-16T02:25:58;15.60;1.00
296;DHT22;132;48.770;9.200;2022-10-16T02:28:37;15.50;1.00
296;DHT22;132;48.770;9.200;2022-10-16T02:31:09;15.60;1.00
296;DHT22;132;48.770;9.200;2022-10-16T02:33:39;15.60;1.00
296;DHT22;132;48.770;9.200;2022-10-16T02:36:07;15.60;1.00
296;DHT22;132;48.770;9.200;2022-10-16T02:38:34;15.60;1.00
296;DHT22;132;48.770;9.200;2022-10-16T02:41:00;15.80;1.00
296;DHT22;132;48.770;9.200;2022-10-16T02:43:27;15.60;1.00
296;DHT22;132;48.770;9.200;2022-10-16T02:45:53;15.60;1.00
296;DHT22;132;48.770;9.200;2022-10-16T02:48:20;15.50;1.00
296;DHT22;132;48.770;9.200;2022-10-16T02:50:46;16.00;1.00
296;DHT22;132;48.770;9.200;2022-10-16T02:53:12;15.70;1.00
296;DHT22;132;48.770;9.200;2022-10-16T02:55:39;15.60;1.00
296;DHT22;132;48.770;9.200;2022-10-16T02:58:05;15.40;1.00
296;DHT22;132;48.770;9.200;2022-10-16T03:00:32;15.60;1.00
296;DHT22;132;48.770;9.200;2022-10-16T03:02:58;15.50;1.00
296;DHT22;132;48.770;9.200;2022-10-16T03:05:25;15.50;1.00
296;DHT22;132;48.770;9.200;2022-10-16T03:07:51;15.60;1.00
296;DHT22;132;48.770;9.200;2022-10-16T03:10:18;15.50;1.00
296;DHT22;132;48.770;9.200;2022-10-16T03:12:45;15.50;1.00
296;DHT22;132;48.770;9.200;2022-10-16T03:15:11;15.50;1.00
296;DHT22;132;48.770;9.200;2022-10-16T03:17:37;15.70;1.00
296;DHT22;132;48.770;9.200;2022-10-16T03:20:04;15.60;1.00
296;DHT22;132;48.770;9.200;2022-10-16T03:22:31;15.50;1.00
296;DHT22;132;48.770;9.200;2022-10-16T03:24:57;15.60;1.00
296;DHT22;132;48.770;9.200;2022-10-16T03:27:23;15.50;1.00
296;DHT22;132;48.770;9.200;2022-10-16T03:29:50;15.50;1.00
296;DHT22;132;48.770;9.200;2022-10-16T03:32:16;15.50;1.00
296;DHT22;132;48.770;9.200;2022-10-16T03:34:42;15.40;1.00
296;DHT22;132;48.770;9.200;2022-10-16T03:37:09;15.40;1.00
296;DHT22;132;48.770;9.200;2022-10-16T03:39:36;15.30;1.00
296;DHT22;132;48.770;9.200;2022-10-16T03:42:02;15.40;1.00
296;DHT22;132;48.770;9.200;2022-10-16T03:44:28;15.40;1.00
296;DHT22;132;48.770;9.200;2022-10-16T03:46:55;15.40;1.00
296;DHT22;132;48.770;9.200;2022-10-16T03:49:21;15.40;1.00
296;DHT22;132;48.770;9.200;2022-10-16T03:51:47;15.30;1.00
296;DHT22;132;48.770;9.200;2022-10-16T03:54:14;15.30;1.00
296;DHT22;132;48.770;9.200;2022-10-16T03:56:40;15.30;1.00
296;DHT22;132;48.770;9.200;2022-10-16T03:59:07;15.40;1.00
296;DHT22;132;48.770;9.200;2022-10-16T04:01:33;15.20;1.00
296;DHT22;132;48.770;9.200;2022-10-16T04:03:59;15.30;1.00
296;DHT22;132;48.770;9.200;2022-10-16T04:06:26;15.10;1.00
296;DHT22;132;48.770;9.200;2022-10-16T04:08:52;15.10;1.00
296;DHT22;132;48.770;9.200;2022-10-16T04:11:19;15.10;1.00
296;DHT22;132;48.770;9.200;2022-10-16T04:13:45;15.00;1.00
296;DHT22;132;48.770;9.200;2022-10-16T04:16:11;15.20;1.00
296;DHT22;132;48.770;9.200;2022-10-16T04:18:38;15.20;1.00
296;DHT22;132;48.770;9.200;2022-10-16T04:21:05;15.10;1.00
296;DHT22;132;48.770;9.200;2022-10-16T04:25:59;15.00;1.00
296;DHT22;132;48.770;9.200;2022-10-16T04:28:26;15.00;1.00
296;DHT22;132;48.770;9.200;2022-10-16T04:30:52;15.00;1.00
296;DHT22;132;48.770;9.200;2022-10-16T04:33:19;15.00;1.00
296;DHT22;132;48.770;9.200;2022-10-16T04:35:45;15.00;1.00
296;DHT22;132;48.770;9.200;2022-10-16T04:38:11;15.00;1.00
296;DHT22;132;48.770;9.200;2022-10-16T04:40:38;15.20;1.00
296;DHT22;132;48.770;9.200;2022-10-16T04:43:04;15.20;1.00
296;DHT22;132;48.770;9.200;2022-10-16T04:45:31;14.90;1.00
296;DHT22;132;48.770;9.200;2022-10-16T04:47:59;14.90;1.00
296;DHT22;132;48.770;9.200;2022-10-16T04:50:26;15.10;1.00
296;DHT22;132;48.770;9.200;2022-10-16T04:53:06;15.00;1.00
296;DHT22;132;48.770;9.200;2022-10-16T04:55:33;15.10;1.00
296;DHT22;132;48.770;9.200;2022-10-16T04:58:00;15.00;1.00
296;DHT22;132;48.770;9.200;2022-10-16T05:00:26;15.20;1.00
296;DHT22;132;48.770;9.200;2022-10-16T05:02:53;15.00;1.00
296;DHT22;132;48.770;9.200;2022-10-16T05:05:19;15.00;1.00
296;DHT22;132;48.770;9.200;2022-10-16T05:07:46;15.00;1.00
296;DHT22;132;48.770;9.200;2022-10-16T05:10:13;15.00;1.00
296;DHT22;132;48.770;9.200;2022-10-16T05:12:39;15.00;1.00
296;DHT22;132;48.770;9.200;2022-10-16T05:15:06;14.90;1.00
296;DHT22;132;48.770;9.200;2022-10-16T05:17:33;15.00;1.00
296;DHT22;132;48.770;9.200;2022-10-16T05:19:59;15.00;1.00
296;DHT22;132;48.770;9.200;2022-10-16T05:22:25;15.00;1.00
296;DHT22;132;48.770;9.200;2022-10-16T05:24:52;15.00;1.00
296;DHT22;132;48.770;9.200;2022-10-16T05:27:18;15.00;1.00
296;DHT22;132;48.770;9.200;2022-10-16T05:29:46;14.90;1.00
296;DHT22;132;48.770;9.200;2022-10-16T05:32:14;15.10;1.00
296;DHT22;132;48.770;9.200;2022-10-16T05:34:41;14.90;1.00
296;DHT22;132;48.770;9.200;2022-10-16T05:37:07;14.90;1.00
296;DHT22;132;48.770;9.200;2022-10-16T05:39:34;14.70;1.00
296;DHT22;132;48.770;9.200;2022-10-16T05:42:00;14.90;1.00
296;DHT22;132;48.770;9.200;2022-10-16T05:44:27;15.00;1.00
296;DHT22;132;48.770;9.200;2022-10-16T05:46:53;14.80;1.00
296;DHT22;132;48.770;9.200;2022-10-16T05:49:19;14.80;1.00
296;DHT22;132;48.770;9.200;2022-10-16T05:51:46;14.70;1.00
296;DHT22;132;48.770;9.200;2022-10-16T05:54:12;14.70;1.00
296;DHT22;132;48.770;9.200;2022-10-16T05:56:39;14.70;1.00
296;DHT22;132;48.770;9.200;2022-10-16T05:59:05;14.70;1.00
296;DHT22;132;48.770;9.200;2022-10-16T06:01:32;14.80;1.00
296;DHT22;132;48.770;9.200;2022-10-16T06:03:59;14.70;1.00
296;DHT22;132;48.770;9.200;2022-10-16T06:06:27;14.80;1.00
296;DHT22;132;48.770;9.200;2022-10-16T06:08:55;14.80;1.00
296;DHT22;132;48.770;9.200;2022-10-16T06:11:24;14.90;1.00
296;DHT22;132;48.770;9.200;2022-10-16T06:13:55;15.00;1.00
296;DHT22;132;48.770;9.200;2022-10-16T06:16:27;14.70;1.00
296;DHT22;132;48.770;9.200;2022-10-16T06:18:55;14.90;1.00
296;DHT22;132;48.770;9.200;2022-10-16T06:21:27;14.90;1.00
296;DHT22;132;48.770;9.200;2022-10-16T06:23:55;15.00;1.00
296;DHT22;132;48.770;9.200;2022-10-16T06:26:24;15.10;1.00
296;DHT22;132;48.770;9.200;2022-10-16T06:28:51;15.10;1.00
296;DHT22;132;48.770;9.200;2022-10-16T06:31:17;15.10;1.00
296;DHT22;132;48.770;9.200;2022-10-16T06:33:44;15.10;1.00
296;DHT22;132;48.770;9.200;2022-10-16T06:36:15;15.30;1.00
296;DHT22;132;48.770;9.200;2022-10-16T06:38:42;15.40;1.00
296;DHT22;132;48.770;9.200;2022-10-16T06:41:12;15.30;1.00
296;DHT22;132;48.770;9.200;2022-10-16T06:43:38;15.30;1.00
296;DHT22;132;48.770;9.200;2022-10-16T06:46:07;15.30;1.00
296;DHT22;132;48.770;9.200;2022-10-16T06:48:37;15.40;1.00
296;DHT22;132;48.770;9.200;2022-10-16T06:53:39;15.50;1.00
296;DHT22;132;48.770;9.200;2022-10-16T06:56:08;15.60;1.00
296;DHT22;132;48.770;9.200;2022-10-16T06:58:35;15.60;1.00
296;DHT22;132;48.770;9.200;2022-10-16T07:01:02;15.70;1.00
296;DHT22;132;48.770;9.200;2022-10-16T07:03:28;15.70;1.00
296;DHT22;132;48.770;9.200;2022-10-16T07:05:54;15.80;1.00
296;DHT22;132;48.770;9.200;2022-10-16T07:08:21;15.80;1.00
296;DHT22;132;48.770;9.200;2022-10-16T07:10:47;15.90;1.00
296;DHT22;132;48.770;9.200;2022-10-16T07:13:14;15.90;1.00
296;DHT22;132;48.770;9.200;2022-10-16T07:15:41;16.20;1.00
296;DHT22;132;48.770;9.200;2022-10-16T07:18:07;16.10;1.00
296;DHT22;132;48.770;9.200;2022-10-16T07:20:34;16.10;1.00
296;DHT22;132;48.770;9.200;2022-10-16T07:23:00;16.20;1.00
296;DHT22;132;48.770;9.200;2022-10-16T07:25:26;16.20;1.00
296;DHT22;132;48.770;9.200;2022-10-16T07:27:53;16.20;1.00
296;DHT22;132;48.770;9.200;2022-10-16T07:30:22;16.20;1.00
296;DHT22;132;48.770;9.200;2022-10-16T07:32:48;16.30;1.00
296;DHT22;132;48.770;9.200;2022-10-16T07:35:14;16.20;1.00
296;DHT22;132;48.770;9.200;2022-10-16T07:37:45;14.80;1.00
296;DHT22;132;48.770;9.200;2022-10-16T07:40:12;16.20;1.00
296;DHT22;132;48.770;9.200;2022-10-16T07:42:38;16.20;1.00
296;DHT22;132;48.770;9.200;2022-10-16T07:45:05;16.20;1.00
296;DHT22;132;48.770;9.200;2022-10-16T07:47:32;16.30;1.00
296;DHT22;132;48.770;9.200;2022-10-16T07:49:58;16.30;1.00
296;DHT22;132;48.770;9.200;2022-10-16T07:52:24;16.30;1.00
296;DHT22;132;48.770;9.200;2022-10-16T07:54:51;16.40;1.00
296;DHT22;132;48.770;9.200;2022-10-16T07:57:17;16.40;1.00
296;DHT22;132;48.770;9.200;2022-10-16T07:59:46;16.40;1.00
296;DHT22;132;48.770;9.200;2022-10-16T08:02:12;16.40;1.00
296;DHT22;132;48.770;9.200;2022-10-16T08:04:38;16.40;1.00
296;DHT22;132;48.770;9.200;2022-10-16T08:07:07;16.50;1.00
296;DHT22;132;48.770;9.200;2022-10-16T08:09:34;16.60;1.00
296;DHT22;132;48.770;9.200;2022-10-16T08:12:00;16.60;1.00
296;DHT22;132;48.770;9.200;2022-10-16T08:14:26;16.90;1.00
296;DHT22;132;48.770;9.200;2022-10-16T08:16:53;16.90;1.00
296;DHT22;132;48.770;9.200;2022-10-16T08:19:19;17.00;1.00
296;DHT22;132;48.770;9.200;2022-10-16T08:21:49;17.10;1.00
296;DHT22;132;48.770;9.200;2022-10-16T08:24:15;17.20;1.00
296;DHT22;132;48.770;9.200;2022-10-16T08:26:41;17.40;1.00
296;DHT22;132;48.770;9.200;2022-10-16T08:29:08;17.50;1.00
296;DHT22;132;48.770;9.200;2022-10-16T08:31:34;17.60;1.00
296;DHT22;132;48.770;9.200;2022-10-16T08:34:00;17.70;1.00
296;DHT22;132;48.770;9.200;2022-10-16T08:36:27;17.80;1.00
296;DHT22;132;48.770;9.200;2022-10-16T08:38:53;18.00;1.00
296;DHT22;132;48.770;9.200;2022-10-16T08:52:19;18.30;1.00
296;DHT22;132;48.770;9.200;2022-10-16T08:54:48;18.40;1.00
296;DHT22;132;48.770;9.200;2022-10-16T08:57:20;18.40;1.00
296;DHT22;132;48.770;9.200;2022-10-16T08:59:46;18.40;1.00
296;DHT22;132;48.770;9.200;2022-10-16T09:16:35;18.90;1.00
296;DHT22;132;48.770;9.200;2022-10-16T09:19:31;19.00;1.00
296;DHT22;132;48.770;9.200;2022-10-16T09:22:04;19.00;1.00
296;DHT22;132;48.770;9.200;2022-10-16T09:24:35;19.10;1.00
296;DHT22;132;48.770;9.200;2022-10-16T09:27:02;19.10;1.00
296;DHT22;132;48.770;9.200;2022-10-16T09:29:29;19.10;1.00
296;DHT22;132;48.770;9.200;2022-10-16T09:32:12;19.10;1.00
296;DHT22;132;48.770;9.200;2022-10-16T09:34:45;19.10;1.00
296;DHT22;132;48.770;9.200;2022-10-16T09:37:16;19.20;1.00
296;DHT22;132;48.770;9.200;2022-10-16T09:39:48;18.90;1.00
296;DHT22;132;48.770;9.200;2022-10-16T09:42:25;19.10;1.00
296;DHT22;132;48.770;9.200;2022-10-16T09:44:53;19.10;1.00
296;DHT22;132;48.770;9.200;2022-10-16T09:47:24;19.20;1.00
296;DHT22;132;48.770;9.200;2022-10-16T09:49:59;19.20;1.00
296;DHT22;132;48.770;9.200;2022-10-16T09:52:30;19.20;1.00
296;DHT22;132;48.770;9.200;2022-10-16T09:55:01;19.30;1.00
296;DHT22;132;48.770;9.200;2022-10-16T09:57:28;19.50;1.00
296;DHT22;132;48.770;9.200;2022-10-16T09:59:58;19.60;1.00
296;DHT22;132;48.770;9.200;2022-10-16T10:02:39;19.70;1.00
296;DHT22;132;48.770;9.200;2022-10-16T10:05:18;19.70;1.00
296;DHT22;132;48.770;9.200;2022-10-16T10:07:45;19.80;1.00
296;DHT22;132;48.770;9.200;2022-10-16T10:10:24;20.00;1.00
296;DHT22;132;48.770;9.200;2022-10-16T10:12:53;20.10;1.00
296;DHT22;132;48.770;9.200;2022-10-16T10:15:21;20.20;1.00
296;DHT22;132;48.770;9.200;2022-10-16T10:17:53;20.20;1.00
296;DHT22;132;48.770;9.200;2022-10-16T10:22:54;20.30;1.00
296;DHT22;132;48.770;9.200;2022-10-16T10:25:49;20.30;1.00
296;DHT22;132;48.770;9.200;2022-10-16T10:28:31;20.30;1.00
296;DHT22;132;48.770;9.200;2022-10-16T10:31:14;20.30;1.00
296;DHT22;132;48.770;9.200;2022-10-16T10:33:43;20.30;1.00
296;DHT22;132;48.770;9.200;2022-10-16T10:36:34;20.40;1.00
296;DHT22;132;48.770;9.200;2022-10-16T10:41:55;20.70;1.00
296;DHT22;132;48.770;9.200;2022-10-16T10:44:47;20.80;1.00
296;DHT22;132;48.770;9.200;2022-10-16T10:52:43;21.10;1.00
296;DHT22;132;48.770;9.200;2022-10-16T10:55:33;21.10;1.00
296;DHT22;132;48.770;9.200;2022-10-16T11:01:08;21.20;1.00
296;DHT22;132;48.770;9.200;2022-10-16T11:06:31;20.80;1.00
296;DHT22;132;48.770;9.200;2022-10-16T11:09:16;21.00;1.00
296;DHT22;132;48.770;9.200;2022-10-16T11:11:45;21.10;1.00
296;DHT22;132;48.770;9.200;2022-10-16T11:14:23;21.10;1.00
296;DHT22;132;48.770;9.200;2022-10-16T11:19:46;21.20;1.00
296;DHT22;132;48.770;9.200;2022-10-16T11:22:23;21.20;1.00
296;DHT22;132;48.770;9.200;2022-10-16T11:27:42;21.20;1.00
296;DHT22;132;48.770;9.200;2022-10-16T11:30:23;21.30;1.00
296;DHT22;132;48.770;9.200;2022-10-16T11:38:20;21.40;1.00
296;DHT22;132;48.770;9.200;2022-10-16T11:40:53;21.60;1.00
296;DHT22;132;48.770;9.200;2022-10-16T11:45:53;21.50;1.00
296;DHT22;132;48.770;9.200;2022-10-16T11:48:38;21.50;1.00
296;DHT22;132;48.770;9.200;2022-10-16T11:54:14;21.60;1.00
296;DHT22;132;48.770;9.200;2022-10-16T11:56:42;21.60;1.00
296;DHT22;132;48.770;9.200;2022-10-16T11:59:32;21.80;1.00
296;DHT22;132;48.770;9.200;2022-10-16T12:02:23;21.90;1.00
296;DHT22;132;48.770;9.200;2022-10-16T12:07:47;22.00;1.00
296;DHT22;132;48.770;9.200;2022-10-16T12:10:23;22.10;1.00
296;DHT22;132;48.770;9.200;2022-10-16T12:12:51;22.10;1.00
296;DHT22;132;48.770;9.200;2022-10-16T12:15:26;22.20;1.00
296;DHT22;132;48.770;9.200;2022-10-16T12:17:55;22.30;1.00
296;DHT22;132;48.770;9.200;2022-10-16T12:20:32;22.30;1.00
296;DHT22;132;48.770;9.200;2022-10-16T12:23:02;22.40;1.00
296;DHT22;132;48.770;9.200;2022-10-16T12:25:38;22.40;1.00
296;DHT22;132;48.770;9.200;2022-10-16T12:30:43;22.70;1.00
296;DHT22;132;48.770;9.200;2022-10-16T12:33:36;22.80;1.00
296;DHT22;132;48.770;9.200;2022-10-16T12:36:08;22.90;1.00
296;DHT22;132;48.770;9.200;2022-10-16T12:41:05;22.90;1.00
296;DHT22;132;48.770;9.200;2022-10-16T12:43:46;22.90;1.00
296;DHT22;132;48.770;9.200;2022-10-16T12:48:41;22.90;1.00
296;DHT22;132;48.770;9.200;2022-10-16T12:51:11;22.90;1.00
296;DHT22;132;48.770;9.200;2022-10-16T12:53:38;22.90;1.00
296;DHT22;132;48.770;9.200;2022-10-16T12:59:13;22.80;1.00
296;DHT22;132;48.770;9.200;2022-10-16T13:05:16;22.60;1.00
296;DHT22;132;48.770;9.200;2022-10-16T13:07:52;22.50;1.00
296;DHT22;132;48.770;9.200;2022-10-16T13:10:41;22.60;1.00
296;DHT22;132;48.770;9.200;2022-10-16T13:18:58;22.40;1.00
296;DHT22;132;48.770;9.200;2022-10-16T13:21:48;22.80;1.00
296;DHT22;132;48.770;9.200;2022-10-16T13:30:02;22.60;1.00
296;DHT22;132;48.770;9.200;2022-10-16T13:32:33;22.60;1.00
296;DHT22;132;48.770;9.200;2022-10-16T13:35:00;22.60;1.00
296;DHT22;132;48.770;9.200;2022-10-16T13:37:27;22.60;1.00
296;DHT22;132;48.770;9.200;2022-10-16T13:40:21;22.60;1.00
296;DHT22;132;48.770;9.200;2022-10-16T13:42:48;22.60;1.00
296;DHT22;132;48.770;9.200;2022-10-16T13:45:24;22.70;1.00
296;DHT22;132;48.770;9.200;2022-10-16T13:48:04;22.70;1.00
296;DHT22;132;48.770;9.200;2022-10-16T13:50:31;22.80;1.00
296;DHT22;132;48.770;9.200;2022-10-16T13:53:12;22.80;1.00
296;DHT22;132;48.770;9.200;2022-10-16T13:55:39;22.80;1.00
296;DHT22;132;48.770;9.200;2022-10-16T13:58:08;22.80;1.00
296;DHT22;132;48.770;9.200;2022-10-16T14:00:37;22.70;1.00
296;DHT22;132;48.770;9.200;2022-10-16T14:03:14;22.70;1.00
296;DHT22;132;48.770;9.200;2022-10-16T14:05:53;22.60;1.00
296;DHT22;132;48.770;9.200;2022-10-16T14:08:23;22.40;1.00
296;DHT22;132;48.770;9.200;2022-10-16T14:10:53;22.30;1.00
296;DHT22;132;48.770;9.200;2022-10-16T14:13:29;22.20;1.00
296;DHT22;132;48.770;9.200;2022-10-16T14:15:56;22.10;1.00
296;DHT22;132;48.770;9.200;2022-10-16T14:18:25;22.10;1.00
296;DHT22;132;48.770;9.200;2022-10-16T14:20:53;22.00;1.00
296;DHT22;132;48.770;9.200;2022-10-16T14:23:29;22.00;1.00
296;DHT22;132;48.770;9.200;2022-10-16T14:28:36;22.00;1.00
296;DHT22;132;48.770;9.200;2022-10-16T14:31:27;21.90;1.00
296;DHT22;132;48.770;9.200;2022-10-16T14:33:55;22.00;1.00
296;DHT22;132;48.770;9.200;2022-10-16T14:36:22;22.00;1.00
296;DHT22;132;48.770;9.200;2022-10-16T14:39:04;21.90;1.00
296;DHT22;132;48.770;9.200;2022-10-16T14:41:44;21.90;1.00
296;DHT22;132;48.770;9.200;2022-10-16T14:44:12;21.90;1.00
296;DHT22;132;48.770;9.200;2022-10-16T14:46:41;21.90;1.00
296;DHT22;132;48.770;9.200;2022-10-16T14:51:38;21.90;1.00
296;DHT22;132;48.770;9.200;2022-10-16T14:54:08;21.90;1.00
296;DHT22;132;48.770;9.200;2022-10-16T14:56:53;21.90;1.00
296;DHT22;132;48.770;9.200;2022-10-16T15:01:50;21.80;1.00
296;DHT22;132;48.770;9.200;2022-10-16T15:04:17;21.80;1.00
296;DHT22;132;48.770;9.200;2022-10-16T15:06:44;21.80;1.00
296;DHT22;132;48.770;9.200;2022-10-16T15:09:11;21.80;1.00
296;DHT22;132;48.770;9.200;2022-10-16T15:11:38;21.70;1.00
296;DHT22;132;48.770;9.200;2022-10-16T15:14:04;21.70;1.00
296;DHT22;132;48.770;9.200;2022-10-16T15:16:31;21.70;1.00
296;DHT22;132;48.770;9.200;2022-10-16T15:18:57;21.60;1.00
296;DHT22;132;48.770;9.200;2022-10-16T15:21:27;21.60;1.00
296;DHT22;132;48.770;9.200;2022-10-16T15:23:54;21.50;1.00
296;DHT22;132;48.770;9.200;2022-10-16T15:26:20;21.40;1.00
296;DHT22;132;48.770;9.200;2022-10-16T15:28:47;21.40;1.00
296;DHT22;132;48.770;9.200;2022-10-16T15:31:13;21.30;1.00
296;DHT22;132;48.770;9.200;2022-10-16T15:33:40;21.20;1.00
296;DHT22;132;48.770;9.200;2022-10-16T15:36:07;21.10;1.00
296;DHT22;132;48.770;9.200;2022-10-16T15:38:34;21.10;1.00
296;DHT22;132;48.770;9.200;2022-10-16T15:41:00;21.00;1.00
296;DHT22;132;48.770;9.200;2022-10-16T15:43:27;20.80;1.00
296;DHT22;132;48.770;9.200;2022-10-16T15:46:06;20.80;1.00
296;DHT22;132;48.770;9.200;2022-10-16T15:48:35;20.70;1.00
296;DHT22;132;48.770;9.200;2022-10-16T15:51:05;20.60;1.00
296;DHT22;132;48.770;9.200;2022-10-16T15:53:33;20.60;1.00
296;DHT22;132;48.770;9.200;2022-10-16T15:56:04;20.50;1.00
296;DHT22;132;48.770;9.200;2022-10-16T15:58:31;20.50;1.00
296;DHT22;132;48.770;9.200;2022-10-16T16:00:59;20.40;1.00
296;DHT22;132;48.770;9.200;2022-10-16T16:03:30;20.40;1.00
296;DHT22;132;48.770;9.200;2022-10-16T16:05:57;20.30;1.00
296;DHT22;132;48.770;9.200;2022-10-16T16:08:23;20.30;1.00
296;DHT22;132;48.770;9.200;2022-10-16T16:11:04;20.10;1.00
296;DHT22;132;48.770;9.200;2022-10-16T16:13:32;20.10;1.00
296;DHT22;132;48.770;9.200;2022-10-16T16:15:58;19.90;1.00
296;DHT22;132;48.770;9.200;2022-10-16T16:18:25;19.80;1.00
296;DHT22;132;48.770;9.200;2022-10-16T16:20:52;19.60;1.00
296;DHT22;132;48.770;9.200;2022-10-16T16:23:19;19.70;1.00
296;DHT22;132;48.770;9.200;2022-10-16T16:26:05;19.40;1.00
296;DHT22;132;48.770;9.200;2022-10-16T16:28:32;19.30;1.00
296;DHT22;132;48.770;9.200;2022-10-16T16:30:58;19.20;1.00
296;DHT22;132;48.770;9.200;2022-10-16T16:33:25;19.10;1.00
296;DHT22;132;48.770;9.200;2022-10-16T16:35:56;19.10;1.00
296;DHT22;132;48.770;9.200;2022-10-16T16:38:23;19.00;1.00
296;DHT22;132;48.770;9.200;2022-10-16T16:40:49;19.00;1.00
296;DHT22;132;48.770;9.200;2022-10-16T16:43:17;17.40;1.00
296;DHT22;132;48.770;9.200;2022-10-16T16:45:44;18.90;1.00
296;DHT22;132;48.770;9.200;2022-10-16T16:48:10;18.90;1.00
296;DHT22;132;48.770;9.200;2022-10-16T16:50:37;18.90;1.00
296;DHT22;132;48.770;9.200;2022-10-16T16:53:03;18.90;1.00
296;DHT22;132;48.770;9.200;2022-10-16T16:55:30;18.80;1.00
296;DHT22;132;48.770;9.200;2022-10-16T16:57:56;18.80;1.00
296;DHT22;132;48.770;9.200;2022-10-16T17:00:23;18.80;1.00
296;DHT22;132;48.770;9.200;2022-10-16T17:02:50;18.80;1.00
296;DHT22;132;48.770;9.200;2022-10-16T17:05:17;18.80;1.00
296;DHT22;132;48.770;9.200;2022-10-16T17:07:43;18.90;1.00
296;DHT22;132;48.770;9.200;2022-10-16T17:10:10;18.80;1.00
296;DHT22;132;48.770;9.200;2022-10-16T17:12:36;18.80;1.00
296;DHT22;132;48.770;9.200;2022-10-16T17:15:03;18.70;1.00
296;DHT22;132;48.770;9.200;2022-10-16T17:17:30;18.70;1.00
296;DHT22;132;48.770;9.200;2022-10-16T17:19:56;18.80;1.00
296;DHT22;132;48.770;9.200;2022-10-16T17:22:23;18.70;1.00
296;DHT22;132;48.770;9.200;2022-10-16T17:24:50;18.60;1.00
296;DHT22;132;48.770;9.200;2022-10-16T17:27:18;18.60;1.00
296;DHT22;132;48.770;9.200;2022-10-16T17:29:44;18.60;1.00
296;DHT22;132;48.770;9.200;2022-10-16T17:32:11;18.40;1.00
296;DHT22;132;48.770;9.200;2022-10-16T17:34:37;18.40;1.00
296;DHT22;132;48.770;9.200;2022-10-16T17:37:03;18.40;1.00
296;DHT22;132;48.770;9.200;2022-10-16T17:39:31;18.30;1.00
296;DHT22;132;48.770;9.200;2022-10-16T17:41:57;18.20;1.00
296;DHT22;132;48.770;9.200;2022-10-16T17:44:23;18.20;1.00
296;DHT22;132;48.770;9.200;2022-10-16T17:46:52;18.00;1.00
296;DHT22;132;48.770;9.200;2022-10-16T17:49:19;18.10;1.00
296;DHT22;132;48.770;9.200;2022-10-16T17:51:49;18.10;1.00
296;DHT22;132;48.770;9.200;2022-10-16T17:54:16;18.10;1.00
296;DHT22;132;48.770;9.200;2022-10-16T17:56:42;18.00;1.00
296;DHT22;132;48.770;9.200;2022-10-16T17:59:09;18.00;1.00
296;DHT22;132;48.770;9.200;2022-10-16T18:01:38;16.30;1.00
296;DHT22;132;48.770;9.200;2022-10-16T18:04:11;17.90;1.00
296;DHT22;132;48.770;9.200;2022-10-16T18:06:39;17.80;1.00
296;DHT22;132;48.770;9.200;2022-10-16T18:09:07;17.80;1.00
296;DHT22;132;48.770;9.200;2022-10-16T18:11:34;17.70;1.00
296;DHT22;132;48.770;9.200;2022-10-16T18:14:01;17.70;1.00
296;DHT22;132;48.770;9.200;2022-10-16T18:16:28;17.60;1.00
296;DHT22;132;48.770;9.200;2022-10-16T18:18:57;17.60;1.00
296;DHT22;132;48.770;9.200;2022-10-16T18:21:24;17.50;1.00
296;DHT22;132;48.770;9.200;2022-10-16T18:23:56;17.50;1.00
296;DHT22;132;48.770;9.200;2022-10-16T18:26:23;17.50;1.00
296;DHT22;132;48.770;9.200;2022-10-16T18:28:56;17.40;1.00
296;DHT22;132;48.770;9.200;2022-10-16T18:31:23;17.40;1.00
296;DHT22;132;48.770;9.200;2022-10-16T18:33:51;17.40;1.00
296;DHT22;132;48.770;9.200;2022-10-16T18:36:21;17.30;1.00
296;DHT22;132;48.770;9.200;2022-10-16T18:38:48;17.30;1.00
296;DHT22;132;48.770;9.200;2022-10-16T18:41:16;17.10;1.00
296;DHT22;132;48.770;9.200;2022-10-16T18:43:42;17.30;1.00
296;DHT22;132;48.770;9.200;2022-10-16T18:46:11;17.20;1.00
296;DHT22;132;48.770;9.200;2022-10-16T18:48:39;17.20;1.00
296;DHT22;132;48.770;9.200;2022-10-16T18:51:12;17.20;1.00
296;DHT22;132;48.770;9.200;2022-10-16T18:53:41;17.20;1.00